Time;durP1;ratioP1;P1;durP2;ratioP2;P2;SDS_P1;SDS_P2;PMS_P1;PMS_P2;Temp;Humidity;BMP_temperature;BMP_pressure;BME280_temperature;BME280_humidity;BME280_pressure;Samples;Min_cycle;Max_cycle;Signal;HPM_P1;HPM_P2
2023/03/16 00:00:52;;;;;;;12.52;6.07;;;2.20;99.90;;;;;;5038876;28;20021;-67
2023/03/16 00:03:19;;;;;;;15.75;6.20;;;2.10;99.90;;;;;;5039048;28;20030;-67
2023/03/16 00:09:08;;;;;;;15.60;6.93;;;2.00;99.90;;;;;;5039947;28;20029;-68
2023/03/16 00:11:34;;;;;;;13.30;5.20;;;1.90;99.90;;;;;;5038739;28;20021;-67
2023/03/16 00:14:02;;;;;;;14.07;6.07;;;1.90;99.90;;;;;;5038663;28;20025;-67
2023/03/16 00:16:28;;;;;;;11.48;6.50;;;2.00;99.90;;;;;;5039497;28;20021;-67
2023/03/16 00:18:54;;;;;;;12.32;5.75;;;1.80;99.90;;;;;;5040047;28;20028;-67
2023/03/16 00:21:19;;;;;;;20.90;5.72;;;1.90;99.90;;;;;;5038680;28;20079;-67
2023/03/16 00:23:45;;;;;;;16.63;6.03;;;1.90;99.90;;;;;;5039301;28;20096;-67
2023/03/16 00:26:11;;;;;;;12.75;5.07;;;2.00;99.90;;;;;;5038329;28;20025;-67
2023/03/16 00:28:37;;;;;;;14.27;6.03;;;2.00;99.90;;;;;;5038700;28;20021;-67
2023/03/16 00:31:05;;;;;;;14.32;5.80;;;2.00;99.90;;;;;;5038519;28;20017;-67
2023/03/16 00:33:36;;;;;;;16.88;6.43;;;2.10;99.90;;;;;;5038310;28;20032;-67
2023/03/16 00:36:03;;;;;;;15.35;5.88;;;2.00;99.90;;;;;;5039722;28;20053;-67
2023/03/16 00:38:33;;;;;;;20.77;7.30;;;2.10;99.90;;;;;;5039120;28;20025;-67
2023/03/16 00:41:02;;;;;;;14.00;6.13;;;2.00;99.90;;;;;;5038487;28;20124;-67
2023/03/16 00:43:39;;;;;;;9.50;5.18;;;2.00;99.90;;;;;;5039064;28;20048;-67
2023/03/16 00:46:09;;;;;;;11.80;5.22;;;2.10;99.90;;;;;;5037972;28;20116;-67
2023/03/16 00:48:36;;;;;;;13.27;5.95;;;2.00;99.90;;;;;;5038376;28;20028;-67
2023/03/16 00:51:05;;;;;;;12.48;5.05;;;1.80;99.90;;;;;;5037881;28;20121;-67
2023/03/16 00:53:32;;;;;;;15.23;5.43;;;1.90;99.90;;;;;;5038658;28;20018;-67
2023/03/16 00:56:01;;;;;;;11.35;5.18;;;1.80;99.90;;;;;;5037941;28;20036;-67
2023/03/16 00:58:27;;;;;;;11.95;5.35;;;1.80;99.90;;;;;;5038593;28;20104;-67
2023/03/16 01:00:53;;;;;;;10.48;4.97;;;1.90;99.90;;;;;;5037760;28;20072;-67
2023/03/16 01:03:19;;;;;;;16.08;6.13;;;1.90;99.90;;;;;;5038939;28;20025;-67
2023/03/16 01:05:44;;;;;;;13.50;5.15;;;1.90;99.90;;;;;;5037684;28;20021;-67
2023/03/16 01:08:10;;;;;;;15.48;5.78;;;1.80;99.90;;;;;;5038100;28;20022;-67
2023/03/16 01:10:36;;;;;;;12.50;5.68;;;1.80;99.90;;;;;;5038440;28;20022;-67
2023/03/16 01:13:02;;;;;;;14.90;5.50;;;1.90;99.90;;;;;;5037854;28;20030;-67
2023/03/16 01:15:33;;;;;;;12.88;5.00;;;1.90;99.90;;;;;;5037619;28;20029;-68
2023/03/16 01:17:59;;;;;;;11.57;4.10;;;2.00;99.90;;;;;;5038646;28;20053;-67
2023/03/16 01:20:25;;;;;;;10.13;4.93;;;2.00;99.90;;;;;;5037428;28;20064;-67
2023/03/16 01:22:51;;;;;;;12.30;4.72;;;1.90;99.90;;;;;;5038113;28;20052;-67
2023/03/16 01:25:17;;;;;;;11.77;4.53;;;1.80;99.90;;;;;;5038037;28;20064;-67
2023/03/16 01:27:42;;;;;;;11.63;4.53;;;1.80;99.90;;;;;;5038146;28;20075;-67
2023/03/16 01:30:11;;;;;;;10.32;4.72;;;1.80;99.90;;;;;;5037241;28;20022;-67
2023/03/16 01:32:37;;;;;;;11.98;4.68;;;1.80;99.90;;;;;;5037049;28;20049;-67
2023/03/16 01:35:03;;;;;;;13.40;4.85;;;1.80;99.90;;;;;;5037839;28;20072;-67
2023/03/16 01:37:30;;;;;;;9.98;4.18;;;1.70;99.90;;;;;;5037860;28;20022;-67
2023/03/16 01:39:56;;;;;;;9.13;4.72;;;1.80;99.90;;;;;;5038290;28;20029;-67
2023/03/16 01:42:23;;;;;;;10.88;4.53;;;1.80;99.90;;;;;;5036989;28;20032;-67
2023/03/16 01:44:56;;;;;;;13.05;4.72;;;1.70;99.90;;;;;;5037763;28;20030;-68
2023/03/16 01:47:22;;;;;;;12.75;5.10;;;1.70;99.90;;;;;;5037349;28;20026;-67
2023/03/16 01:49:49;;;;;;;12.18;4.20;;;1.60;99.90;;;;;;5037809;28;20017;-67
2023/03/16 01:52:20;;;;;;;9.70;4.95;;;1.60;99.90;;;;;;5036836;28;20018;-67
2023/03/16 01:54:57;;;;;;;10.35;5.28;;;1.50;99.90;;;;;;5037627;28;20025;-67
2023/03/16 01:57:31;;;;;;;11.23;4.90;;;1.50;99.90;;;;;;5036652;28;20029;-67
2023/03/16 02:00:09;;;;;;;15.38;4.80;;;1.40;99.90;;;;;;5036747;28;20075;-67
2023/03/16 02:02:37;;;;;;;15.10;5.03;;;1.40;99.90;;;;;;5037430;28;20029;-67
2023/03/16 02:05:12;;;;;;;10.32;4.60;;;1.40;99.90;;;;;;5037274;28;20036;-67
2023/03/16 02:07:46;;;;;;;9.73;4.38;;;1.40;99.90;;;;;;5037332;28;20056;-67
2023/03/16 02:10:14;;;;;;;10.40;4.00;;;1.40;99.90;;;;;;5036830;28;20025;-67
2023/03/16 02:12:41;;;;;;;9.80;4.18;;;1.40;99.90;;;;;;5036737;28;20021;-67
2023/03/16 02:15:08;;;;;;;12.55;5.00;;;1.40;99.90;;;;;;5036423;28;20112;-67
2023/03/16 02:17:35;;;;;;;14.55;4.10;;;1.40;99.90;;;;;;5037249;28;20022;-67
2023/03/16 02:20:13;;;;;;;12.23;4.95;;;1.40;99.90;;;;;;5036401;28;20026;-67
2023/03/16 02:22:44;;;;;;;10.93;4.53;;;1.20;99.90;;;;;;5037064;28;20032;-67
2023/03/16 02:25:10;;;;;;;16.50;5.17;;;1.30;99.90;;;;;;5037278;28;20025;-67
2023/03/16 02:28:06;;;;;;;14.15;5.15;;;1.40;99.90;;;;;;5037201;28;20032;-67
2023/03/16 02:30:32;;;;;;;9.00;3.97;;;1.40;99.90;;;;;;5037203;28;20028;-67
2023/03/16 02:32:57;;;;;;;9.55;4.40;;;1.50;99.90;;;;;;5036140;28;20025;-67
2023/03/16 02:35:23;;;;;;;11.13;4.47;;;1.60;99.90;;;;;;5037537;28;20029;-67
2023/03/16 02:37:48;;;;;;;12.93;4.65;;;1.60;99.90;;;;;;5035997;28;20028;-67
2023/03/16 02:40:22;;;;;;;16.95;4.60;;;1.50;99.90;;;;;;5036329;28;20033;-67
2023/03/16 02:42:54;;;;;;;12.38;4.55;;;1.40;99.90;;;;;;5036372;28;20034;-68
2023/03/16 02:45:22;;;;;;;9.80;4.35;;;1.30;99.90;;;;;;5036327;28;20026;-67
2023/03/16 02:47:50;;;;;;;8.77;4.10;;;1.10;99.90;;;;;;5035916;28;20025;-67
2023/03/16 02:50:16;;;;;;;13.77;5.50;;;1.10;99.90;;;;;;5035936;28;20155;-67
2023/03/16 02:52:41;;;;;;;10.05;4.55;;;1.20;99.90;;;;;;5036247;28;20109;-67
2023/03/16 02:55:08;;;;;;;10.75;4.72;;;1.00;99.90;;;;;;5035908;28;20034;-67
2023/03/16 02:57:34;;;;;;;14.43;5.13;;;1.10;99.90;;;;;;5035781;28;20029;-67
2023/03/16 03:00:00;;;;;;;10.88;4.35;;;1.10;99.90;;;;;;5035735;28;20160;-67
2023/03/16 03:02:25;;;;;;;16.92;4.85;;;1.10;99.90;;;;;;5036162;28;20017;-67
2023/03/16 03:04:53;;;;;;;11.73;4.30;;;1.20;99.90;;;;;;5035949;28;20017;-67
2023/03/16 03:07:20;;;;;;;9.82;4.75;;;1.00;99.90;;;;;;5036501;28;20029;-67
2023/03/16 03:09:45;;;;;;;14.82;5.20;;;1.00;99.90;;;;;;5036688;28;20028;-67
2023/03/16 03:12:12;;;;;;;9.95;5.07;;;1.00;99.90;;;;;;5035923;28;20104;-67
2023/03/16 03:14:38;;;;;;;8.50;3.58;;;1.10;99.90;;;;;;5036844;28;20022;-67
2023/03/16 03:17:08;;;;;;;15.43;5.30;;;1.00;99.90;;;;;;5035716;28;20026;-67
2023/03/16 03:19:34;;;;;;;9.15;4.43;;;1.00;99.90;;;;;;5036601;28;20097;-67
2023/03/16 03:22:03;;;;;;;13.60;5.05;;;1.00;99.90;;;;;;5035710;28;20025;-67
2023/03/16 03:24:29;;;;;;;9.88;4.60;;;1.10;99.90;;;;;;5035764;28;20026;-67
2023/03/16 03:26:55;;;;;;;10.35;4.85;;;1.20;99.90;;;;;;5035329;28;20084;-67
2023/03/16 03:29:20;;;;;;;8.48;4.30;;;1.30;99.90;;;;;;5036410;28;20021;-67
2023/03/16 03:31:46;;;;;;;12.25;4.43;;;1.30;99.90;;;;;;5036683;28;20021;-67
2023/03/16 03:34:11;;;;;;;8.38;4.63;;;1.30;99.90;;;;;;5036688;28;20018;-67
2023/03/16 03:36:37;;;;;;;12.88;4.47;;;1.30;99.90;;;;;;5035640;28;20025;-67
2023/03/16 03:39:03;;;;;;;10.95;4.55;;;1.30;99.90;;;;;;5036320;28;20064;-67
2023/03/16 03:41:30;;;;;;;8.23;3.90;;;1.20;99.90;;;;;;5035421;28;20045;-67
2023/03/16 03:43:55;;;;;;;9.18;4.45;;;1.10;99.90;;;;;;5035505;28;20026;-67
2023/03/16 03:46:21;;;;;;;8.07;4.60;;;1.20;99.90;;;;;;5035406;28;20021;-68
2023/03/16 03:48:46;;;;;;;8.40;4.45;;;1.10;99.90;;;;;;5035908;28;20033;-67
2023/03/16 03:51:12;;;;;;;11.73;4.28;;;1.20;99.90;;;;;;5036340;28;20033;-67
2023/03/16 03:53:38;;;;;;;12.80;4.57;;;1.20;99.90;;;;;;5035366;28;20025;-67
2023/03/16 03:56:03;;;;;;;9.40;4.70;;;1.20;99.90;;;;;;5037761;28;20029;-67
2023/03/16 03:58:29;;;;;;;11.27;4.10;;;1.30;99.90;;;;;;5039098;28;20112;-67
2023/03/16 04:00:54;;;;;;;10.43;4.97;;;1.30;99.90;;;;;;5039692;28;20119;-67
2023/03/16 04:03:20;;;;;;;12.30;4.72;;;1.30;99.90;;;;;;5039692;28;20026;-67
2023/03/16 04:05:46;;;;;;;13.63;4.55;;;1.10;99.90;;;;;;5039925;28;20025;-67
2023/03/16 04:08:11;;;;;;;10.60;3.95;;;0.90;99.90;;;;;;5038857;28;20036;-67
2023/03/16 04:10:37;;;;;;;10.00;4.20;;;0.90;99.90;;;;;;5038763;28;20022;-67
2023/03/16 04:13:02;;;;;;;9.60;4.10;;;0.90;99.90;;;;;;5038701;28;20092;-68
2023/03/16 04:15:29;;;;;;;9.10;4.70;;;0.80;99.90;;;;;;5039514;28;20033;-68
2023/03/16 04:17:54;;;;;;;12.15;4.35;;;0.70;99.90;;;;;;5039664;28;20066;-67
2023/03/16 04:20:20;;;;;;;11.73;4.30;;;0.70;99.90;;;;;;5038566;28;20034;-67
2023/03/16 04:22:46;;;;;;;10.65;3.80;;;0.80;99.90;;;;;;5038472;28;20022;-67
2023/03/16 04:25:13;;;;;;;9.43;3.72;;;0.90;99.90;;;;;;5038384;28;20028;-67
2023/03/16 04:27:40;;;;;;;11.07;3.95;;;0.90;99.90;;;;;;5038356;28;20022;-67
2023/03/16 04:30:10;;;;;;;9.52;4.75;;;0.90;99.90;;;;;;5038429;28;20017;-67
2023/03/16 04:32:36;;;;;;;9.15;4.50;;;0.80;99.90;;;;;;5039325;28;20021;-67
2023/03/16 04:35:02;;;;;;;11.63;4.60;;;0.90;99.90;;;;;;5038885;28;20112;-67
2023/03/16 04:37:27;;;;;;;16.20;4.57;;;0.80;99.90;;;;;;5039184;28;20056;-67
2023/03/16 04:39:53;;;;;;;14.60;4.63;;;0.80;99.90;;;;;;5038386;28;20021;-67
2023/03/16 04:42:18;;;;;;;10.85;3.88;;;0.80;99.90;;;;;;5038461;28;20037;-67
2023/03/16 04:44:44;;;;;;;11.98;4.47;;;0.50;99.90;;;;;;5038421;28;20093;-67
2023/03/16 04:47:11;;;;;;;8.43;3.97;;;0.50;99.90;;;;;;5038688;28;20021;-67
2023/03/16 04:49:36;;;;;;;10.43;4.18;;;0.50;99.90;;;;;;5038109;28;20025;-67
2023/03/16 04:52:03;;;;;;;10.00;4.05;;;0.40;99.90;;;;;;5038112;28;20021;-67
2023/03/16 04:54:29;;;;;;;8.45;4.00;;;0.40;99.90;;;;;;5037888;28;20021;-67
2023/03/16 04:56:54;;;;;;;11.15;3.70;;;0.50;99.90;;;;;;5038184;28;20074;-67
2023/03/16 04:59:20;;;;;;;10.20;4.65;;;0.60;99.90;;;;;;5038778;28;20026;-67
2023/03/16 05:01:45;;;;;;;15.20;4.03;;;0.50;99.90;;;;;;5037812;28;20021;-67
2023/03/16 05:04:12;;;;;;;14.05;4.00;;;0.60;99.90;;;;;;5038556;28;20025;-67
2023/03/16 05:06:38;;;;;;;8.68;3.80;;;0.60;99.90;;;;;;5062191;23;20033;-67
2023/03/16 05:09:07;;;;;;;10.27;4.10;;;0.60;99.90;;;;;;5057152;28;20040;-67
2023/03/16 05:11:32;;;;;;;9.00;4.10;;;0.60;99.90;;;;;;5057852;28;20055;-67
2023/03/16 05:13:58;;;;;;;8.52;3.65;;;0.60;99.90;;;;;;5057745;28;20025;-67
2023/03/16 05:16:23;;;;;;;10.27;4.18;;;0.60;99.90;;;;;;5057437;28;20024;-67
2023/03/16 05:18:49;;;;;;;12.52;4.60;;;0.60;99.90;;;;;;5057390;28;20049;-67
2023/03/16 05:21:15;;;;;;;8.57;4.15;;;0.60;99.90;;;;;;5058361;28;20036;-67
2023/03/16 05:23:40;;;;;;;13.90;4.20;;;0.70;99.90;;;;;;5057341;28;20021;-68
2023/03/16 05:26:06;;;;;;;8.55;4.13;;;0.60;99.90;;;;;;5057958;28;20115;-68
2023/03/16 05:28:32;;;;;;;10.77;4.75;;;0.50;99.90;;;;;;5057134;28;20029;-68
2023/03/16 05:30:57;;;;;;;12.70;4.05;;;0.50;99.90;;;;;;5057148;28;20021;-68
2023/03/16 05:33:23;;;;;;;10.73;3.67;;;0.50;99.90;;;;;;5057185;28;20051;-68
2023/03/16 05:35:50;;;;;;;10.93;4.07;;;0.50;99.90;;;;;;5057090;28;20052;-68
2023/03/16 05:38:15;;;;;;;9.20;3.97;;;0.50;99.90;;;;;;5057177;28;20028;-68
2023/03/16 05:40:41;;;;;;;14.82;4.55;;;0.50;99.90;;;;;;5057033;28;20051;-68
2023/03/16 05:43:06;;;;;;;12.02;4.70;;;0.60;99.90;;;;;;5058075;28;20021;-68
2023/03/16 05:45:32;;;;;;;16.95;5.25;;;0.60;99.90;;;;;;5057092;28;20017;-68
2023/03/16 05:47:58;;;;;;;9.55;4.68;;;0.60;99.90;;;;;;5056864;28;20021;-68
2023/03/16 05:50:25;;;;;;;10.95;4.72;;;0.50;99.90;;;;;;5056733;28;20082;-68
2023/03/16 05:52:50;;;;;;;11.50;4.95;;;0.50;99.90;;;;;;5056694;28;20025;-68
2023/03/16 05:55:16;;;;;;;14.77;4.85;;;0.50;99.90;;;;;;5056717;28;20079;-68
2023/03/16 05:57:43;;;;;;;12.98;4.78;;;0.50;99.90;;;;;;5056506;28;20104;-68
2023/03/16 06:00:15;;;;;;;8.48;3.97;;;0.40;99.90;;;;;;5057793;28;20017;-68
2023/03/16 06:02:48;;;;;;;13.88;4.15;;;0.30;99.90;;;;;;5057794;28;20076;-68
2023/03/16 06:05:15;;;;;;;12.30;4.55;;;0.20;99.90;;;;;;5057323;28;20050;-69
2023/03/16 06:07:40;;;;;;;9.10;3.80;;;0.20;99.90;;;;;;5057331;28;20128;-68
2023/03/16 06:10:07;;;;;;;9.00;3.67;;;0.30;99.90;;;;;;5056410;28;20052;-68
2023/03/16 06:12:35;;;;;;;6.90;3.85;;;0.40;99.90;;;;;;5056706;28;20024;-68
2023/03/16 06:15:02;;;;;;;9.68;4.00;;;0.50;99.90;;;;;;5056438;28;20025;-68
2023/03/16 06:17:27;;;;;;;13.75;4.53;;;0.50;99.90;;;;;;5056314;28;20037;-67
2023/03/16 06:19:53;;;;;;;16.02;4.15;;;0.50;99.90;;;;;;5056080;28;20021;-67
2023/03/16 06:22:19;;;;;;;10.57;4.68;;;0.60;99.90;;;;;;5056330;28;20047;-68
2023/03/16 06:24:44;;;;;;;15.50;4.63;;;0.60;99.90;;;;;;5057269;28;20048;-68
2023/03/16 06:27:10;;;;;;;10.50;4.95;;;0.50;99.90;;;;;;5056021;28;20021;-68
2023/03/16 06:29:35;;;;;;;12.65;4.72;;;0.50;99.90;;;;;;5057182;28;20035;-68
2023/03/16 06:32:01;;;;;;;10.48;4.70;;;0.50;99.90;;;;;;5056108;28;20119;-68
2023/03/16 06:34:27;;;;;;;10.60;4.70;;;0.40;99.90;;;;;;5057207;28;20032;-68
2023/03/16 06:36:52;;;;;;;13.63;5.00;;;0.60;99.90;;;;;;5056523;28;20079;-68
2023/03/16 06:39:18;;;;;;;12.80;5.13;;;0.80;99.90;;;;;;5057083;28;20104;-68
2023/03/16 06:41:43;;;;;;;10.70;4.78;;;0.90;99.90;;;;;;5056017;28;20029;-68
2023/03/16 06:44:10;;;;;;;11.95;4.97;;;1.00;99.90;;;;;;5056849;28;20025;-68
2023/03/16 06:46:36;;;;;;;14.20;4.88;;;1.00;99.90;;;;;;5055977;28;20032;-68
2023/03/16 06:49:03;;;;;;;10.30;4.53;;;1.00;99.90;;;;;;5055810;28;20029;-68
2023/03/16 06:51:28;;;;;;;12.75;4.72;;;1.10;99.90;;;;;;5055962;28;20052;-68
2023/03/16 06:53:54;;;;;;;9.80;4.05;;;1.10;99.90;;;;;;5056007;28;20032;-68
2023/03/16 06:56:19;;;;;;;9.45;3.88;;;1.30;99.90;;;;;;5057146;28;20025;-68
2023/03/16 06:58:45;;;;;;;13.52;4.80;;;1.30;99.90;;;;;;5056178;28;20017;-68
2023/03/16 07:01:11;;;;;;;15.95;5.93;;;1.40;99.90;;;;;;5055733;28;20021;-68
2023/03/16 07:03:37;;;;;;;22.35;5.70;;;1.70;99.90;;;;;;5056152;28;20113;-68
2023/03/16 07:06:02;;;;;;;14.60;5.82;;;1.90;99.90;;;;;;5056658;28;20054;-69
2023/03/16 07:08:28;;;;;;;13.52;5.97;;;2.00;99.90;;;;;;5055969;28;20033;-69
2023/03/16 07:10:54;;;;;;;11.60;5.30;;;2.10;99.90;;;;;;5055755;28;20119;-69
2023/03/16 07:13:19;;;;;;;9.63;4.93;;;2.10;99.90;;;;;;5056066;28;20033;-69
2023/03/16 07:15:45;;;;;;;9.85;4.60;;;2.20;99.90;;;;;;5055565;28;20112;-68
2023/03/16 07:18:11;;;;;;;13.55;5.28;;;2.30;99.90;;;;;;5056156;28;20025;-66
2023/03/16 07:20:37;;;;;;;15.35;5.95;;;2.40;99.90;;;;;;5055785;28;20107;-65
2023/03/16 07:23:03;;;;;;;14.13;5.15;;;2.60;99.90;;;;;;5055614;28;20021;-65
2023/03/16 07:25:30;;;;;;;11.73;5.40;;;2.60;99.90;;;;;;5055818;28;20055;-65
2023/03/16 07:27:56;;;;;;;12.85;5.60;;;2.60;99.90;;;;;;5055447;28;20053;-65
2023/03/16 07:30:24;;;;;;;15.15;5.72;;;2.60;99.90;;;;;;5057495;28;20025;-65
2023/03/16 07:32:50;;;;;;;13.80;5.97;;;2.60;99.90;;;;;;5060257;28;20048;-65
2023/03/16 07:35:16;;;;;;;14.23;5.32;;;2.80;99.90;;;;;;5060278;28;20021;-65
2023/03/16 07:37:42;;;;;;;15.55;5.82;;;2.90;99.90;;;;;;5059429;28;20028;-66
2023/03/16 07:40:09;;;;;;;14.77;5.55;;;3.00;99.90;;;;;;5059284;28;20021;-66
2023/03/16 07:42:35;;;;;;;12.93;5.18;;;3.10;99.90;;;;;;5058905;28;20025;-66
2023/03/16 07:45:01;;;;;;;9.35;4.32;;;3.30;99.90;;;;;;5059287;28;20021;-66
2023/03/16 07:47:29;;;;;;;7.00;4.22;;;3.40;99.90;;;;;;5059070;28;20051;-66
2023/03/16 07:49:54;;;;;;;10.93;4.53;;;3.30;99.90;;;;;;5060127;28;20025;-66
2023/03/16 07:52:20;;;;;;;12.52;4.80;;;3.50;99.90;;;;;;5059132;28;20064;-66
2023/03/16 07:54:46;;;;;;;13.60;4.57;;;3.80;99.90;;;;;;5060075;28;20025;-66
2023/03/16 07:57:11;;;;;;;7.30;4.15;;;3.80;99.90;;;;;;5058851;28;20028;-66
2023/03/16 07:59:37;;;;;;;10.07;5.10;;;3.60;99.90;;;;;;5058964;28;20025;-66
2023/03/16 08:02:03;;;;;;;12.18;5.03;;;3.60;99.90;;;;;;5059040;28;20029;-65
2023/03/16 08:04:28;;;;;;;10.35;4.82;;;3.90;99.90;;;;;;5059103;28;20116;-66
2023/03/16 08:06:59;;;;;;;7.82;3.75;;;3.90;99.90;;;;;;5059043;28;20033;-65
2023/03/16 08:09:26;;;;;;;8.50;4.45;;;3.80;99.90;;;;;;5059670;28;20032;-65
2023/03/16 08:11:52;;;;;;;10.60;4.53;;;4.00;99.90;;;;;;5058703;28;20031;-66
2023/03/16 08:14:18;;;;;;;9.60;3.92;;;4.10;99.90;;;;;;5058705;28;20092;-66
2023/03/16 08:16:44;;;;;;;10.02;4.57;;;4.30;99.90;;;;;;5058595;28;20033;-66
2023/03/16 08:19:10;;;;;;;7.60;3.95;;;4.40;99.90;;;;;;5059318;28;20064;-66
2023/03/16 08:21:36;;;;;;;10.90;3.60;;;4.50;99.90;;;;;;5058750;28;20017;-66
2023/03/16 08:24:01;;;;;;;6.80;3.25;;;4.70;99.90;;;;;;5059370;28;20037;-66
2023/03/16 08:26:27;;;;;;;7.13;3.45;;;4.80;99.90;;;;;;5059200;28;20032;-66
2023/03/16 08:28:54;;;;;;;6.30;3.20;;;5.10;99.90;;;;;;5059347;28;20021;-67
2023/03/16 08:31:20;;;;;;;5.85;3.33;;;5.10;99.90;;;;;;5058366;28;20029;-67
2023/03/16 08:33:47;;;;;;;9.90;3.33;;;5.10;99.90;;;;;;5058630;28;20055;-66
2023/03/16 08:36:14;;;;;;;7.72;3.20;;;5.20;99.90;;;;;;5059037;28;20068;-66
2023/03/16 08:38:40;;;;;;;8.48;3.28;;;5.30;99.90;;;;;;5058318;28;20025;-66
2023/03/16 08:41:07;;;;;;;5.20;2.95;;;5.10;99.90;;;;;;5058637;28;20021;-67
2023/03/16 08:43:33;;;;;;;5.50;2.67;;;5.00;99.90;;;;;;5058119;28;20032;-66
2023/03/16 08:46:00;;;;;;;5.35;2.55;;;4.60;99.90;;;;;;5059325;28;20025;-66
2023/03/16 08:48:26;;;;;;;8.50;3.13;;;4.70;99.90;;;;;;5058164;28;20033;-66
2023/03/16 08:50:52;;;;;;;4.88;2.72;;;4.90;99.90;;;;;;5057968;28;20115;-66
2023/03/16 08:53:19;;;;;;;7.13;3.45;;;5.00;99.90;;;;;;5059361;28;20024;-67
2023/03/16 08:55:45;;;;;;;5.03;2.85;;;5.20;99.90;;;;;;5057878;28;20070;-67
2023/03/16 08:58:11;;;;;;;5.95;2.83;;;5.30;99.90;;;;;;5058845;28;20021;-67
2023/03/16 09:00:38;;;;;;;8.55;3.70;;;5.40;99.90;;;;;;5058045;28;20017;-67
2023/03/16 09:03:05;;;;;;;9.10;2.97;;;5.50;99.90;;;;;;5057910;28;20051;-67
2023/03/16 09:05:31;;;;;;;5.90;3.25;;;5.60;99.90;;;;;;5057857;28;20025;-67
2023/03/16 09:07:57;;;;;;;5.47;2.83;;;5.80;99.90;;;;;;5057735;28;20025;-66
2023/03/16 09:10:24;;;;;;;8.80;3.08;;;5.60;99.90;;;;;;5058595;28;20017;-66
2023/03/16 09:12:50;;;;;;;6.15;2.83;;;5.70;99.90;;;;;;5058747;28;20013;-67
2023/03/16 09:15:18;;;;;;;6.93;3.05;;;5.80;99.90;;;;;;5058403;28;20028;-68
2023/03/16 09:17:44;;;;;;;5.40;2.60;;;5.90;99.90;;;;;;5058048;28;20052;-67
2023/03/16 09:20:11;;;;;;;4.93;3.13;;;6.00;99.90;;;;;;5058622;28;20017;-66
2023/03/16 09:22:37;;;;;;;5.15;2.60;;;6.00;99.90;;;;;;5058185;28;20016;-66
2023/03/16 09:25:07;;;;;;;4.75;2.58;;;6.20;99.90;;;;;;5058637;28;20159;-66
2023/03/16 09:27:35;;;;;;;5.20;2.88;;;6.20;99.90;;;;;;5058413;28;20021;-66
2023/03/16 09:30:02;;;;;;;6.47;3.10;;;6.40;99.90;;;;;;5058120;28;20033;-66
2023/03/16 09:32:29;;;;;;;5.82;2.60;;;6.60;99.90;;;;;;5058220;28;20029;-66
2023/03/16 09:34:54;;;;;;;8.00;2.95;;;6.50;99.90;;;;;;5057399;28;20100;-66
2023/03/16 09:37:21;;;;;;;6.05;2.40;;;6.70;99.90;;;;;;5057103;28;20092;-66
2023/03/16 09:39:47;;;;;;;5.60;2.95;;;6.80;99.90;;;;;;5056915;28;20017;-66
2023/03/16 09:42:36;;;;;;;7.47;2.83;;;6.90;99.90;;;;;;5057071;28;20025;-66
2023/03/16 09:45:19;;;;;;;6.63;3.35;;;7.00;99.90;;;;;;5058271;28;20028;-67
2023/03/16 09:47:48;;;;;;;5.95;2.80;;;7.00;99.90;;;;;;5056914;28;20055;-66
2023/03/16 09:50:22;;;;;;;5.38;3.03;;;7.00;99.90;;;;;;5057806;28;20097;-66
2023/03/16 09:52:59;;;;;;;4.72;2.88;;;7.20;99.90;;;;;;5056486;28;20052;-66
2023/03/16 09:55:37;;;;;;;7.95;2.55;;;7.00;99.90;;;;;;5056656;28;20086;-66
2023/03/16 09:58:15;;;;;;;4.88;2.90;;;7.20;99.90;;;;;;5057622;28;20050;-66
2023/03/16 10:00:49;;;;;;;5.65;3.00;;;7.20;99.90;;;;;;5057540;28;20021;-66
2023/03/16 10:03:30;;;;;;;5.05;2.92;;;7.40;99.90;;;;;;5056673;28;20078;-66
2023/03/16 10:06:00;;;;;;;5.57;3.28;;;7.50;99.90;;;;;;5056612;28;20025;-66
2023/03/16 10:08:30;;;;;;;4.47;2.90;;;7.80;99.90;;;;;;5056360;28;20033;-66
2023/03/16 10:11:14;;;;;;;6.13;2.72;;;7.90;99.90;;;;;;5057520;28;20021;-66
2023/03/16 10:13:57;;;;;;;4.75;2.58;;;8.10;99.90;;;;;;5057381;28;20088;-66
2023/03/16 10:16:34;;;;;;;5.78;2.53;;;8.30;99.90;;;;;;5057344;28;20076;-66
2023/03/16 10:19:44;;;;;;;6.20;3.08;;;8.40;99.90;;;;;;5056593;28;20028;-66
2023/03/16 10:22:21;;;;;;;7.22;2.97;;;8.60;99.90;;;;;;5057235;28;20021;-66
2023/03/16 10:25:07;;;;;;;4.82;2.75;;;8.80;99.90;;;;;;5057424;28;20025;-66
2023/03/16 10:27:35;;;;;;;7.45;2.55;;;8.90;99.90;;;;;;5056156;28;20025;-66
2023/03/16 10:30:06;;;;;;;5.95;3.20;;;9.10;99.90;;;;;;5056393;28;20025;-66
2023/03/16 10:32:37;;;;;;;3.50;2.50;;;9.30;99.90;;;;;;5057139;28;20021;-66
2023/03/16 10:35:20;;;;;;;5.28;2.97;;;9.20;99.90;;;;;;5056651;28;20039;-66
2023/03/16 10:37:48;;;;;;;4.90;2.90;;;9.00;99.90;;;;;;5056156;28;20054;-66
2023/03/16 10:40:15;;;;;;;4.40;2.35;;;9.20;99.90;;;;;;5056071;28;20039;-66
2023/03/16 10:42:40;;;;;;;5.07;2.83;;;9.40;99.90;;;;;;5057520;28;20096;-66
2023/03/16 10:45:22;;;;;;;4.35;2.63;;;9.30;99.90;;;;;;5056040;28;20063;-66
2023/03/16 10:47:47;;;;;;;6.38;2.95;;;9.40;99.90;;;;;;5056744;28;20028;-66
2023/03/16 10:50:17;;;;;;;6.22;2.78;;;9.20;99.90;;;;;;5056415;28;20031;-66
2023/03/16 10:52:46;;;;;;;5.93;3.30;;;9.20;99.90;;;;;;5055942;28;20035;-66
2023/03/16 10:55:28;;;;;;;5.25;2.90;;;9.30;99.90;;;;;;5057250;28;20063;-66
2023/03/16 10:57:55;;;;;;;4.93;2.63;;;9.10;99.90;;;;;;5055834;28;20142;-66
2023/03/16 11:00:42;;;;;;;5.15;3.03;;;8.90;99.90;;;;;;5055824;28;20021;-67
2023/03/16 11:03:26;;;;;;;5.88;2.80;;;8.80;99.90;;;;;;5056878;28;20031;-66
2023/03/16 11:05:59;;;;;;;5.55;2.53;;;9.10;99.90;;;;;;5059518;28;20032;-67
2023/03/16 11:08:37;;;;;;;4.75;2.58;;;9.80;99.90;;;;;;5093661;23;20102;-63
2023/03/16 11:11:15;;;;;;;5.80;2.88;;;10.50;99.90;;;;;;5080822;28;20029;-64
2023/03/16 11:13:46;;;;;;;3.70;2.72;;;10.50;99.90;;;;;;5078103;28;20032;-64
2023/03/16 11:16:15;;;;;;;4.07;2.90;;;10.90;99.90;;;;;;5080368;28;20047;-64
2023/03/16 11:18:44;;;;;;;4.25;2.60;;;10.70;99.90;;;;;;5079754;28;20024;-64
2023/03/16 11:21:53;;;;;;;5.05;3.00;;;10.40;99.90;;;;;;5079868;28;20048;-64
2023/03/16 11:25:00;;;;;;;5.40;3.00;;;9.60;99.90;;;;;;5078175;28;20056;-64
2023/03/16 11:27:32;;;;;;;6.13;2.75;;;9.60;99.90;;;;;;5079756;28;20041;-64
2023/03/16 11:30:15;;;;;;;4.65;2.97;;;9.90;99.90;;;;;;5079553;28;20096;-64
2023/03/16 11:32:49;;;;;;;3.80;2.78;;;9.50;99.90;;;;;;5080412;28;20074;-64
2023/03/16 11:35:18;;;;;;;4.32;2.30;;;9.60;99.90;;;;;;5080352;28;20020;-64
2023/03/16 11:38:05;;;;;;;4.93;2.78;;;9.70;99.90;;;;;;5080236;28;20078;-64
2023/03/16 11:40:42;;;;;;;3.85;2.75;;;10.40;99.90;;;;;;5080364;28;20024;-64
2023/03/16 11:46:53;;;;;;;3.97;2.75;;;11.50;99.90;;;;;;5080300;28;20032;-64
2023/03/16 11:49:58;;;;;;;4.78;2.30;;;12.10;99.90;;;;;;5080417;28;20017;-64
2023/03/16 11:52:29;;;;;;;4.07;2.55;;;11.30;99.90;;;;;;5079093;28;20043;-64
2023/03/16 11:55:00;;;;;;;4.57;2.50;;;11.00;99.90;;;;;;5080118;28;20017;-65
2023/03/16 11:57:51;;;;;;;5.82;3.17;;;11.00;99.90;;;;;;5079231;28;20071;-64
2023/03/16 12:00:46;;;;;;;4.32;2.20;;;10.80;99.90;;;;;;5079002;28;20115;-64
2023/03/16 12:03:23;;;;;;;3.70;2.58;;;10.40;99.90;;;;;;5079706;28;20124;-64
2023/03/16 12:06:21;;;;;;;7.35;2.90;;;10.40;99.90;;;;;;5079041;28;20024;-64
2023/03/16 12:08:47;;;;;;;4.88;2.97;;;10.60;99.90;;;;;;5078939;28;20044;-64
2023/03/16 12:11:24;;;;;;;5.50;3.05;;;10.70;99.90;;;;;;5079358;28;20028;-64
2023/03/16 12:14:18;;;;;;;4.22;2.80;;;10.30;99.90;;;;;;5078759;28;20115;-64
2023/03/16 12:16:56;;;;;;;4.45;2.97;;;10.20;99.90;;;;;;5077724;28;20042;-64
2023/03/16 12:19:46;;;;;;;5.35;3.17;;;10.80;99.90;;;;;;5078862;28;20020;-64
2023/03/16 12:22:27;;;;;;;6.18;3.15;;;10.80;99.90;;;;;;5078575;28;20031;-64
2023/03/16 12:24:53;;;;;;;4.85;3.03;;;11.00;99.90;;;;;;5079050;28;20027;-64
2023/03/16 12:27:36;;;;;;;5.70;2.70;;;11.10;99.90;;;;;;5078760;28;20099;-64
2023/03/16 12:30:26;;;;;;;5.32;3.10;;;11.80;99.90;;;;;;5079397;28;20024;-64
2023/03/16 12:33:33;;;;;;;4.38;2.80;;;11.40;99.90;;;;;;5078514;28;20108;-64
2023/03/16 12:36:16;;;;;;;4.72;2.72;;;11.60;99.90;;;;;;5078228;28;20082;-64
2023/03/16 12:38:54;;;;;;;5.72;3.28;;;11.60;99.90;;;;;;5079346;28;20024;-64
2023/03/16 12:41:37;;;;;;;6.20;3.35;;;11.50;99.90;;;;;;5078649;28;20078;-65
2023/03/16 12:44:24;;;;;;;5.30;3.60;;;11.20;99.90;;;;;;5079261;28;20052;-64
2023/03/16 12:47:11;;;;;;;6.85;3.53;;;10.60;99.90;;;;;;5079186;28;20110;-65
2023/03/16 12:49:38;;;;;;;5.05;3.08;;;10.30;99.90;;;;;;5078749;28;20025;-64
2023/03/16 12:52:09;;;;;;;6.20;3.22;;;10.50;99.90;;;;;;5078952;28;20032;-64
2023/03/16 12:54:34;;;;;;;4.50;3.15;;;10.20;99.90;;;;;;5078030;28;20031;-64
2023/03/16 12:57:03;;;;;;;5.55;3.50;;;9.80;99.90;;;;;;5077867;28;20037;-64
2023/03/16 12:59:42;;;;;;;6.75;3.50;;;9.70;99.90;;;;;;5077962;28;20021;-64
2023/03/16 13:02:20;;;;;;;7.22;3.45;;;9.70;99.90;;;;;;5076934;28;20036;-64
2023/03/16 13:04:53;;;;;;;5.40;3.65;;;9.60;99.90;;;;;;5078666;28;20017;-64
2023/03/16 13:07:22;;;;;;;5.80;3.13;;;9.60;99.90;;;;;;5077606;28;20029;-64
2023/03/16 13:09:59;;;;;;;5.82;3.33;;;9.80;99.90;;;;;;5077641;28;20036;-63